createdAt,value
2022-09-15T00:00:00.231Z,90.50
2022-09-15T00:02:26.597Z,90.33
2022-09-15T00:04:53.348Z,90.41
2022-09-15T00:07:20.559Z,89.98
2022-09-15T00:09:47.246Z,90.65
2022-09-15T00:12:13.675Z,90.45
2022-09-15T00:14:40.030Z,90.41
2022-09-15T00:17:06.984Z,90.44
2022-09-15T00:19:33.324Z,90.28
2022-09-15T00:21:59.623Z,89.69
2022-09-15T00:24:26.398Z,89.62
2022-09-15T00:26:52.740Z,89.66
2022-09-15T00:29:19.443Z,89.79
2022-09-15T00:31:45.791Z,89.90
2022-09-15T00:34:13.211Z,89.45
2022-09-15T00:36:40.775Z,89.58
2022-09-15T00:39:07.186Z,89.69
2022-09-15T00:41:33.542Z,89.56
2022-09-15T00:44:06.597Z,89.56
2022-09-15T00:46:41.001Z,88.91
2022-09-15T00:49:11.009Z,88.46
2022-09-15T00:52:07.166Z,87.99
2022-09-15T00:54:46.688Z,88.43
2022-09-15T00:57:19.719Z,88.11
2022-09-15T00:59:48.327Z,88.36
2022-09-15T01:02:28.080Z,88.37
2022-09-15T01:04:58.582Z,88.03
2022-09-15T01:07:46.437Z,87.70
2022-09-15T01:10:21.891Z,88.10
2022-09-15T01:12:48.635Z,88.59
2022-09-15T01:15:16.167Z,88.44
2022-09-15T01:17:56.240Z,88.77
2022-09-15T01:20:41.207Z,89.19
2022-09-15T01:23:29.839Z,89.42
2022-09-15T01:26:10.909Z,89.42
2022-09-15T01:29:02.503Z,90.13
2022-09-15T01:32:02.181Z,89.93
2022-09-15T01:34:39.167Z,90.48
2022-09-15T01:37:15.167Z,90.50
2022-09-15T01:39:46.178Z,90.36
2022-09-15T01:42:15.415Z,90.41
2022-09-15T01:44:56.979Z,90.76
2022-09-15T01:47:27.298Z,90.18
2022-09-15T01:50:03.127Z,90.07
2022-09-15T01:52:31.532Z,89.76
2022-09-15T01:55:05.116Z,89.85
2022-09-15T01:57:33.162Z,90.19
2022-09-15T02:00:00.492Z,90.14
2022-09-15T02:02:34.681Z,90.04
2022-09-15T02:05:20.109Z,90.09
2022-09-15T02:07:52.351Z,90.17
2022-09-15T02:10:58.687Z,90.49
2022-09-15T02:13:33.063Z,90.63
2022-09-15T02:16:00.405Z,90.55
2022-09-15T02:18:45.553Z,90.75
2022-09-15T02:21:23.262Z,90.44
2022-09-15T02:23:55.296Z,90.40
2022-09-15T02:26:26.900Z,90.43
2022-09-15T02:28:57.552Z,90.48
2022-09-15T02:31:25.835Z,90.10
2022-09-15T02:33:59.930Z,90.39
2022-09-15T02:36:29.098Z,90.14
2022-09-15T02:39:00.667Z,90.18
2022-09-15T02:41:27.224Z,89.54
2022-09-15T02:43:54.082Z,89.29
2022-09-15T02:46:22.974Z,89.65
2022-09-15T02:48:50.143Z,89.51
2022-09-15T02:51:18.353Z,89.51
2022-09-15T02:53:46.926Z,89.51
2022-09-15T02:56:13.709Z,89.57
2022-09-15T02:58:40.042Z,89.43
2022-09-15T03:01:08.567Z,89.52
2022-09-15T03:03:35.023Z,89.40
2022-09-15T03:06:17.108Z,89.56
2022-09-15T03:08:45.134Z,89.43
2022-09-15T03:11:12.075Z,89.48
2022-09-15T03:13:39.143Z,89.49
2022-09-15T03:16:13.927Z,89.35
2022-09-15T03:18:42.035Z,89.68
2022-09-15T03:21:12.190Z,89.57
2022-09-15T03:23:39.670Z,89.27
2022-09-15T03:26:08.139Z,89.00
2022-09-15T03:28:35.282Z,88.91
2022-09-15T03:31:02.451Z,89.06
2022-09-15T03:33:30.303Z,88.81
2022-09-15T03:35:57.069Z,88.60
2022-09-15T03:38:23.495Z,88.57
2022-09-15T03:40:58.516Z,88.52
2022-09-15T03:43:25.560Z,88.40
2022-09-15T03:45:51.938Z,88.62
2022-09-15T03:48:19.171Z,88.31
2022-09-15T03:50:45.928Z,88.67
2022-09-15T03:53:12.632Z,88.35
2022-09-15T03:55:39.292Z,88.44
2022-09-15T03:58:05.603Z,87.92
2022-09-15T04:00:32.177Z,88.42
2022-09-15T04:02:58.883Z,88.15
2022-09-15T04:05:25.359Z,87.98
2022-09-15T04:07:51.665Z,88.10
2022-09-15T04:10:18.933Z,87.76
2022-09-15T04:12:46.072Z,87.96
2022-09-15T04:15:12.378Z,88.25
2022-09-15T04:17:39.431Z,88.02
2022-09-15T04:20:06.239Z,88.27
2022-09-15T04:22:32.566Z,88.17
2022-09-15T04:24:59.225Z,88.21
2022-09-15T04:27:25.644Z,88.18
2022-09-15T04:29:52.479Z,88.25
2022-09-15T04:32:20.949Z,87.98
2022-09-15T04:34:47.377Z,88.12
2022-09-15T04:37:13.743Z,87.95
2022-09-15T04:39:40.894Z,88.23
2022-09-15T04:42:07.781Z,88.07
2022-09-15T04:44:34.120Z,88.20
2022-09-15T04:47:01.045Z,88.36
2022-09-15T04:49:28.800Z,88.59
2022-09-15T04:51:55.226Z,88.33
2022-09-15T04:54:21.920Z,88.72
2022-09-15T04:56:48.827Z,88.88
2022-09-15T04:59:17.507Z,88.92
2022-09-15T05:01:45.763Z,88.89
2022-09-15T05:04:12.473Z,88.85
2022-09-15T05:06:39.067Z,88.88
2022-09-15T05:09:10.467Z,88.86
2022-09-15T05:11:37.781Z,88.99
2022-09-15T05:14:04.118Z,89.16
2022-09-15T05:16:31.898Z,88.52
2022-09-15T05:19:00.594Z,88.96
2022-09-15T05:21:27.643Z,88.93
2022-09-15T05:23:54.568Z,88.82
2022-09-15T05:26:23.960Z,88.84
2022-09-15T05:28:50.295Z,88.79
2022-09-15T05:31:23.088Z,88.87
2022-09-15T05:33:50.498Z,88.67
2022-09-15T05:36:18.500Z,88.49
2022-09-15T05:38:45.397Z,88.64
2022-09-15T05:41:14.054Z,88.30
2022-09-15T05:43:40.369Z,88.31
2022-09-15T05:46:07.878Z,88.59
2022-09-15T05:48:34.767Z,87.80
2022-09-15T05:51:01.656Z,88.22
2022-09-15T05:53:28.958Z,88.78
2022-09-15T05:56:00.258Z,88.49
2022-09-15T05:58:27.371Z,88.63
2022-09-15T06:00:54.475Z,88.54
2022-09-15T06:03:24.463Z,88.77
2022-09-15T06:06:00.107Z,88.70
2022-09-15T06:08:34.163Z,88.30
2022-09-15T06:11:02.791Z,88.34
2022-09-15T06:13:29.293Z,88.43
2022-09-15T06:16:01.484Z,87.84
2022-09-15T06:18:28.076Z,88.53
2022-09-15T06:20:54.382Z,87.92
2022-09-15T06:23:21.283Z,88.53
2022-09-15T06:25:48.059Z,88.20
2022-09-15T06:28:14.359Z,88.29
2022-09-15T06:30:41.149Z,88.00
2022-09-15T06:33:07.459Z,87.44
2022-09-15T06:35:33.786Z,87.05
2022-09-15T06:38:00.496Z,86.82
2022-09-15T06:40:26.928Z,86.78
2022-09-15T06:42:57.033Z,86.18
2022-09-15T06:45:23.780Z,86.50
2022-09-15T06:48:13.442Z,86.90
2022-09-15T06:50:39.084Z,87.11
2022-09-15T06:53:05.471Z,87.64
2022-09-15T06:55:31.788Z,87.53
2022-09-15T06:57:58.464Z,88.16
2022-09-15T07:00:25.599Z,88.82
2022-09-15T07:02:51.975Z,89.92
2022-09-15T07:05:18.947Z,89.83
2022-09-15T07:07:45.290Z,90.18
2022-09-15T07:10:11.692Z,90.53
2022-09-15T07:12:38.416Z,90.31
2022-09-15T07:15:05.168Z,90.24
2022-09-15T07:17:31.468Z,90.94
2022-09-15T07:19:58.044Z,90.62
2022-09-15T07:22:24.793Z,90.62
2022-09-15T07:24:51.101Z,91.09
2022-09-15T07:27:18.070Z,91.16
2022-09-15T07:29:44.704Z,90.99
2022-09-15T07:32:11.010Z,91.16
2022-09-15T07:34:37.328Z,90.65
2022-09-15T07:37:04.215Z,90.56
2022-09-15T07:39:32.511Z,90.40
2022-09-15T07:41:58.858Z,90.18
2022-09-15T07:44:25.279Z,90.67
2022-09-15T07:46:51.989Z,90.71
2022-09-15T07:49:18.289Z,90.34
2022-09-15T07:51:44.595Z,90.11
2022-09-15T07:54:13.275Z,89.90
2022-09-15T07:56:39.610Z,89.97
2022-09-15T07:59:06.010Z,90.60
2022-09-15T08:01:33.118Z,90.07
2022-09-15T08:03:59.531Z,90.29
2022-09-15T08:06:26.763Z,90.13
2022-09-15T08:08:59.227Z,90.01
2022-09-15T08:11:26.991Z,90.33
2022-09-15T08:13:53.747Z,90.29
2022-09-15T08:16:22.951Z,89.78
2022-09-15T08:18:49.960Z,89.10
2022-09-15T08:21:20.566Z,88.84
2022-09-15T08:23:51.958Z,88.49
2022-09-15T08:26:19.394Z,89.02
2022-09-15T08:28:45.913Z,88.61
2022-09-15T08:31:14.228Z,88.99
2022-09-15T08:33:45.466Z,88.37
2022-09-15T08:36:13.140Z,87.47
2022-09-15T08:38:40.739Z,87.00
2022-09-15T08:41:37.884Z,87.02
2022-09-15T08:44:22.839Z,86.14
2022-09-15T08:46:56.519Z,86.62
2022-09-15T08:49:51.214Z,87.20
2022-09-15T08:52:35.059Z,87.00
2022-09-15T08:55:10.250Z,86.46
2022-09-15T08:57:36.763Z,86.73
2022-09-15T09:00:03.801Z,86.09
2022-09-15T09:02:48.597Z,86.57
2022-09-15T09:05:34.282Z,85.86
2022-09-15T09:08:11.255Z,86.17
2022-09-15T09:11:11.030Z,86.01
2022-09-15T09:13:58.010Z,85.56
2022-09-15T09:16:47.243Z,86.38
2022-09-15T09:19:17.089Z,86.62
2022-09-15T09:22:09.504Z,86.59
2022-09-15T09:24:43.040Z,85.08
2022-09-15T09:27:19.852Z,86.47
2022-09-15T09:29:52.274Z,86.58
2022-09-15T09:32:27.342Z,85.04
2022-09-15T09:35:05.731Z,85.66
2022-09-15T09:37:33.278Z,84.49
2022-09-15T09:40:00.421Z,84.64
2022-09-15T09:42:34.741Z,84.82
2022-09-15T09:45:01.010Z,84.87
2022-09-15T09:47:29.648Z,82.50
2022-09-15T09:49:56.130Z,83.30
2022-09-15T09:52:39.297Z,81.83
2022-09-15T09:55:31.676Z,81.01
2022-09-15T09:58:14.431Z,82.69
2022-09-15T10:00:41.963Z,82.17
2022-09-15T10:03:23.021Z,81.60
2022-09-15T10:06:08.054Z,80.69
2022-09-15T10:08:36.329Z,81.43
2022-09-15T10:11:08.578Z,79.14
2022-09-15T10:13:49.598Z,78.55
2022-09-15T10:16:19.239Z,75.95
2022-09-15T10:18:48.990Z,75.05
2022-09-15T10:21:23.924Z,76.20
2022-09-15T10:23:50.239Z,75.54
2022-09-15T10:26:16.547Z,74.89
2022-09-15T10:28:44.369Z,76.77
2022-09-15T10:31:16.187Z,77.59
2022-09-15T10:33:47.774Z,76.38
2022-09-15T10:36:17.567Z,76.86
2022-09-15T10:38:49.687Z,75.85
2022-09-15T10:41:25.739Z,76.13
2022-09-15T10:44:33.982Z,75.23
2022-09-15T10:47:12.915Z,72.87
2022-09-15T10:49:59.960Z,68.89
2022-09-15T10:52:41.220Z,70.02
2022-09-15T10:55:52.221Z,69.94
2022-09-15T10:58:25.360Z,68.34
2022-09-15T11:01:11.208Z,66.34
2022-09-15T11:03:49.273Z,68.14
2022-09-15T11:06:25.022Z,65.99
2022-09-15T11:09:15.240Z,68.92
2022-09-15T11:12:04.664Z,67.21
2022-09-15T11:15:11.797Z,68.87
2022-09-15T11:17:54.147Z,68.11
2022-09-15T11:20:33.333Z,68.48
2022-09-15T11:23:22.571Z,69.43
2022-09-15T11:25:55.244Z,69.62
2022-09-15T11:28:41.646Z,68.99
2022-09-15T11:31:16.775Z,68.24
2022-09-15T11:33:52.400Z,69.55
2022-09-15T11:36:30.327Z,69.05
2022-09-15T11:39:27.952Z,69.22
2022-09-15T11:42:17.542Z,68.81
2022-09-15T11:44:46.896Z,68.22
2022-09-15T11:47:31.170Z,68.94
2022-09-15T11:50:17.969Z,69.43
2022-09-15T11:52:57.668Z,70.94
2022-09-15T11:55:29.975Z,71.10
2022-09-15T11:58:35.092Z,70.28
2022-09-15T12:01:10.507Z,71.92
2022-09-15T12:04:00.035Z,72.25
2022-09-15T12:06:35.997Z,73.31
2022-09-15T12:09:06.006Z,73.47
2022-09-15T12:11:40.464Z,72.63
2022-09-15T12:14:10.898Z,72.26
2022-09-15T12:16:37.528Z,73.18
2022-09-15T12:19:33.014Z,72.48
2022-09-15T12:22:29.588Z,71.95
2022-09-15T12:25:15.397Z,72.13
2022-09-15T12:27:41.738Z,72.16
2022-09-15T12:30:38.286Z,70.29
2022-09-15T12:33:42.658Z,69.44
2022-09-15T12:39:46.094Z,75.67
2022-09-15T12:42:20.666Z,77.23
2022-09-15T12:44:52.683Z,77.31
2022-09-15T12:47:39.133Z,77.86
2022-09-15T12:50:14.891Z,79.41
2022-09-15T12:52:45.377Z,79.66
2022-09-15T12:55:27.966Z,80.87
2022-09-15T12:58:18.208Z,82.25
2022-09-15T13:01:07.211Z,82.45
2022-09-15T13:03:38.179Z,83.31
2022-09-15T13:06:10.905Z,83.76
2022-09-15T13:08:37.252Z,83.68
2022-09-15T13:11:08.512Z,83.24
2022-09-15T13:13:43.906Z,83.51
2022-09-15T13:16:19.438Z,83.49
2022-09-15T13:18:47.441Z,83.64
2022-09-15T13:21:19.216Z,84.08
2022-09-15T13:23:48.536Z,84.17
2022-09-15T13:26:22.455Z,82.51
2022-09-15T13:28:51.647Z,83.63
2022-09-15T13:31:37.563Z,81.86
2022-09-15T13:40:14.738Z,81.24
2022-09-15T13:43:00.559Z,80.76
2022-09-15T13:45:50.606Z,81.86
2022-09-15T13:48:39.642Z,80.13
2022-09-15T13:51:15.515Z,81.79
2022-09-15T13:53:51.031Z,81.55
2022-09-15T13:56:27.999Z,81.79
2022-09-15T13:59:07.258Z,82.31
2022-09-15T14:01:40.693Z,82.92
2022-09-15T14:04:24.263Z,83.36
2022-09-15T14:06:58.539Z,83.88
2022-09-15T14:09:33.995Z,83.53
2022-09-15T14:12:09.407Z,83.58
2022-09-15T14:14:53.564Z,83.01
2022-09-15T14:17:25.204Z,82.88
2022-09-15T14:19:54.227Z,82.73
2022-09-15T14:22:20.631Z,83.19
2022-09-15T14:24:47.746Z,82.53
2022-09-15T14:27:22.259Z,81.96
2022-09-15T14:29:54.313Z,81.96
2022-09-15T14:32:21.616Z,83.28
2022-09-15T14:37:24.252Z,81.66
2022-09-15T14:39:57.035Z,81.62
2022-09-15T14:42:32.422Z,81.08
2022-09-15T14:48:00.422Z,82.01
2022-09-15T14:50:32.466Z,82.32
2022-09-15T14:53:07.524Z,80.47
2022-09-15T14:55:54.526Z,79.80
2022-09-15T14:58:32.890Z,78.90
2022-09-15T15:01:42.739Z,79.25
2022-09-15T15:04:18.140Z,79.75
2022-09-15T15:07:10.534Z,78.12
2022-09-15T15:09:47.837Z,78.99
2022-09-15T15:12:33.504Z,77.63
2022-09-15T15:15:00.455Z,78.43
2022-09-15T15:17:44.079Z,77.81
2022-09-15T15:20:10.612Z,77.77
2022-09-15T15:22:38.440Z,77.17
2022-09-15T15:25:29.936Z,77.59
2022-09-15T15:28:00.226Z,77.14
2022-09-15T15:30:30.444Z,76.40
2022-09-15T15:32:59.591Z,75.72
2022-09-15T15:35:26.446Z,75.54
2022-09-15T15:38:16.119Z,76.21
2022-09-15T15:40:43.748Z,76.16
2022-09-15T15:43:24.683Z,76.08
2022-09-15T15:46:00.958Z,75.29
2022-09-15T15:48:32.848Z,75.59
2022-09-15T15:51:04.481Z,75.35
2022-09-15T15:53:31.186Z,75.67
2022-09-15T15:55:59.634Z,76.40
2022-09-15T15:58:26.668Z,76.86
2022-09-15T16:00:56.469Z,76.80
2022-09-15T16:03:24.626Z,76.58
2022-09-15T16:05:53.988Z,77.13
2022-09-15T16:08:26.784Z,77.74
2022-09-15T16:10:54.604Z,78.34
2022-09-15T16:13:22.307Z,78.70
2022-09-15T16:15:49.183Z,79.01
2022-09-15T16:18:15.726Z,78.61
2022-09-15T16:20:42.506Z,78.98
2022-09-15T16:23:15.332Z,78.46
2022-09-15T16:25:59.284Z,78.41
2022-09-15T16:28:25.930Z,78.88
2022-09-15T16:30:52.299Z,78.85
2022-09-15T16:33:19.260Z,79.53
2022-09-15T16:35:53.171Z,79.58
2022-09-15T16:38:20.076Z,79.95
2022-09-15T16:40:51.492Z,80.31
2022-09-15T16:43:21.389Z,81.20
2022-09-15T16:45:49.075Z,81.32
2022-09-15T16:48:15.547Z,82.20
2022-09-15T16:51:01.654Z,81.79
2022-09-15T16:53:31.387Z,81.52
2022-09-15T16:55:57.828Z,81.66
2022-09-15T16:58:24.180Z,81.68
2022-09-15T17:00:52.949Z,81.82
2022-09-15T17:03:24.279Z,81.84
2022-09-15T17:05:55.770Z,82.19
2022-09-15T17:08:29.504Z,82.47
2022-09-15T17:10:57.668Z,82.56
2022-09-15T17:13:29.305Z,83.27
2022-09-15T17:15:57.183Z,83.84
2022-09-15T17:18:23.944Z,83.60
2022-09-15T17:20:50.715Z,85.24
2022-09-15T17:23:27.905Z,84.31
2022-09-15T17:26:00.192Z,84.60
2022-09-15T17:28:29.221Z,85.41
2022-09-15T17:31:04.783Z,86.22
2022-09-15T17:33:31.967Z,87.35
2022-09-15T17:35:59.581Z,87.10
2022-09-15T17:38:26.511Z,87.27
2022-09-15T17:40:55.614Z,87.82
2022-09-15T17:43:24.449Z,86.89
2022-09-15T17:45:51.118Z,87.60
2022-09-15T17:48:18.396Z,88.50
2022-09-15T17:50:45.268Z,88.31
2022-09-15T17:53:32.055Z,88.14
2022-09-15T17:55:58.524Z,87.27
2022-09-15T17:58:26.604Z,87.49
2022-09-15T18:00:54.473Z,87.99
2022-09-15T18:03:23.198Z,87.80
2022-09-15T18:05:50.863Z,87.19
2022-09-15T18:08:18.108Z,87.39
2022-09-15T18:10:44.944Z,88.03
2022-09-15T18:13:16.864Z,88.10
2022-09-15T18:15:44.424Z,88.29
2022-09-15T18:18:16.489Z,88.15
2022-09-15T18:20:43.292Z,87.92
2022-09-15T18:23:15.204Z,87.62
2022-09-15T18:25:42.048Z,87.33
2022-09-15T18:28:08.926Z,86.93
2022-09-15T18:30:41.125Z,87.00
2022-09-15T18:33:12.551Z,87.03
2022-09-15T18:35:40.962Z,87.05
2022-09-15T18:38:08.260Z,86.66
2022-09-15T18:40:34.699Z,88.28
2022-09-15T18:43:01.052Z,88.54
2022-09-15T18:45:28.489Z,88.01
2022-09-15T18:47:54.872Z,87.84
2022-09-15T18:50:23.681Z,86.96
2022-09-15T18:52:50.767Z,88.40
2022-09-15T18:55:20.119Z,87.98
2022-09-15T18:57:47.244Z,87.75
2022-09-15T19:00:17.593Z,87.50
2022-09-15T19:02:44.407Z,87.56
2022-09-15T19:05:15.528Z,87.37
2022-09-15T19:07:43.496Z,86.88
2022-09-15T19:10:11.515Z,86.93
2022-09-15T19:12:38.407Z,86.99
2022-09-15T19:15:10.758Z,86.26
2022-09-15T19:17:38.223Z,86.25
2022-09-15T19:20:07.155Z,86.68
2022-09-15T19:22:34.062Z,85.96
2022-09-15T19:25:00.577Z,86.17
2022-09-15T19:27:27.455Z,85.96
2022-09-15T19:29:53.776Z,86.65
2022-09-15T19:32:20.964Z,86.76
2022-09-15T19:34:48.659Z,86.45
2022-09-15T19:37:18.861Z,86.49
2022-09-15T19:39:46.219Z,86.35
2022-09-15T19:42:13.060Z,85.86
2022-09-15T19:44:41.137Z,85.46
2022-09-15T19:47:08.762Z,84.68
2022-09-15T19:49:35.723Z,84.07
2022-09-15T19:52:02.124Z,83.99
2022-09-15T19:54:30.046Z,83.74
2022-09-15T19:56:56.848Z,83.57
2022-09-15T19:59:27.417Z,83.63
2022-09-15T20:01:57.243Z,84.88
2022-09-15T20:04:23.635Z,84.26
2022-09-15T20:06:49.967Z,84.13
2022-09-15T20:09:17.174Z,84.59
2022-09-15T20:11:43.711Z,83.95
2022-09-15T20:14:10.114Z,84.34
2022-09-15T20:16:37.027Z,84.87
2022-09-15T20:19:04.645Z,84.92
2022-09-15T20:21:51.103Z,85.36
2022-09-15T20:24:20.364Z,85.79
2022-09-15T20:26:47.246Z,86.12
2022-09-15T20:29:14.243Z,87.03
2022-09-15T20:31:41.558Z,86.76
2022-09-15T20:34:08.127Z,87.30
2022-09-15T20:36:36.538Z,87.74
2022-09-15T20:39:06.435Z,87.36
2022-09-15T20:41:32.924Z,87.64
2022-09-15T20:44:00.112Z,88.17
2022-09-15T20:46:29.442Z,87.53
2022-09-15T20:48:55.779Z,88.62
2022-09-15T20:51:25.447Z,87.70
2022-09-15T20:53:54.651Z,87.79
2022-09-15T20:56:24.791Z,87.76
2022-09-15T20:58:52.778Z,87.75
2022-09-15T21:01:22.077Z,87.88
2022-09-15T21:03:49.146Z,88.20
2022-09-15T21:06:18.846Z,89.38
2022-09-15T21:08:47.962Z,90.28
2022-09-15T21:11:15.772Z,90.00
2022-09-15T21:13:43.403Z,90.22
2022-09-15T21:16:15.674Z,90.67
2022-09-15T21:18:44.351Z,90.45
2022-09-15T21:21:16.367Z,89.65
2022-09-15T21:23:54.626Z,89.81
2022-09-15T21:26:27.112Z,89.98
2022-09-15T21:28:55.134Z,89.87
2022-09-15T21:31:26.538Z,89.40
2022-09-15T21:33:54.316Z,88.88
2022-09-15T21:36:26.209Z,89.27
2022-09-15T21:38:54.627Z,90.23
2022-09-15T21:41:23.491Z,91.12
2022-09-15T21:43:55.845Z,91.08
2022-09-15T21:46:24.494Z,91.55
2022-09-15T21:48:51.691Z,90.29
2022-09-15T21:51:24.229Z,90.44
2022-09-15T21:53:52.503Z,89.28
2022-09-15T21:56:18.883Z,89.71
2022-09-15T21:58:45.931Z,90.07
2022-09-15T22:01:19.766Z,89.92
2022-09-15T22:03:52.062Z,89.83
2022-09-15T22:06:20.838Z,90.43
2022-09-15T22:08:47.535Z,90.05
2022-09-15T22:11:14.784Z,89.54
2022-09-15T22:13:43.483Z,90.37
2022-09-15T22:16:16.967Z,91.86
2022-09-15T22:18:44.901Z,91.88
2022-09-15T22:21:23.288Z,91.43
2022-09-15T22:23:52.059Z,90.95
2022-09-15T22:26:29.739Z,90.25
2022-09-15T22:28:57.272Z,89.64
2022-09-15T22:31:24.757Z,90.21
2022-09-15T22:33:51.729Z,90.03
2022-09-15T22:36:25.134Z,90.11
2022-09-15T22:38:55.330Z,89.86
2022-09-15T22:41:25.449Z,90.17
2022-09-15T22:43:51.857Z,89.60
2022-09-15T22:46:19.824Z,90.02
2022-09-15T22:48:46.327Z,90.08
2022-09-15T22:51:13.104Z,90.09
2022-09-15T22:53:39.868Z,89.93
2022-09-15T22:56:08.067Z,89.79
2022-09-15T22:58:35.977Z,90.25
2022-09-15T23:01:13.926Z,90.37
2022-09-15T23:03:40.671Z,90.31
2022-09-15T23:06:08.365Z,90.33
2022-09-15T23:08:35.914Z,90.10
2022-09-15T23:11:08.362Z,89.94
2022-09-15T23:13:36.055Z,90.18
2022-09-15T23:16:03.277Z,90.08
2022-09-15T23:18:30.032Z,90.16
2022-09-15T23:21:01.820Z,89.91
2022-09-15T23:23:29.081Z,90.51
2022-09-15T23:25:56.342Z,90.10
2022-09-15T23:28:23.717Z,90.03
2022-09-15T23:30:55.197Z,89.90
2022-09-15T23:33:22.876Z,90.50
2022-09-15T23:35:49.996Z,90.54
2022-09-15T23:38:17.769Z,90.09
2022-09-15T23:40:45.279Z,89.89
2022-09-15T23:43:12.617Z,90.76
2022-09-15T23:45:39.940Z,89.95
2022-09-15T23:48:08.236Z,89.67
2022-09-15T23:50:36.538Z,89.56
2022-09-15T23:53:03.811Z,89.23
2022-09-15T23:55:30.296Z,89.22
2022-09-15T23:57:57.451Z,89.56
